Time;durP1;ratioP1;P1;durP2;ratioP2;P2;SDS_P1;SDS_P2;PMS_P1;PMS_P2;Temp;Humidity;BMP_temperature;BMP_pressure;BME280_temperature;BME280_humidity;BME280_pressure;Samples;Min_cycle;Max_cycle;Signal;HPM_P1;HPM_P2
2021/05/23 00:02:15;;;;;;;3.42;2.70;;;;;;;9.45;100.00;98975.06;5053590;28;20206;-72
2021/05/23 00:04:41;;;;;;;5.43;2.50;;;;;;;9.48;100.00;98974.88;5053575;28;20188;-71
2021/05/23 00:07:09;;;;;;;2.92;2.05;;;;;;;9.38;100.00;98978.16;5053437;28;20309;-71
2021/05/23 00:09:35;;;;;;;3.40;2.25;;;;;;;9.38;100.00;98986.22;5053948;28;20616;-73
2021/05/23 00:12:01;;;;;;;3.38;2.50;;;;;;;9.11;100.00;98975.38;5053831;28;20299;-73
2021/05/23 00:14:28;;;;;;;4.40;2.63;;;;;;;9.12;100.00;98974.41;5053789;28;20550;-73
2021/05/23 00:16:55;;;;;;;5.85;2.92;;;;;;;9.22;100.00;98974.69;5053631;28;20221;-72
2021/05/23 00:19:21;;;;;;;4.30;2.30;;;;;;;9.24;100.00;98978.13;5053713;28;20532;-72
2021/05/23 00:21:47;;;;;;;6.05;2.17;;;;;;;9.13;100.00;98978.81;5053561;28;20289;-72
2021/05/23 00:24:13;;;;;;;3.05;2.70;;;;;;;9.14;100.00;98977.00;5053913;28;20329;-74
2021/05/23 00:26:39;;;;;;;4.97;2.45;;;;;;;8.91;100.00;98986.44;5053337;28;20203;-72
2021/05/23 00:29:06;;;;;;;2.78;2.50;;;;;;;9.00;100.00;98991.28;5053629;28;20191;-71
2021/05/23 00:31:33;;;;;;;3.20;2.33;;;;;;;8.97;100.00;98988.78;5053748;28;20282;-72
2021/05/23 00:34:00;;;;;;;2.97;2.70;;;;;;;8.92;100.00;98989.06;5053694;28;20179;-72
2021/05/23 00:36:27;;;;;;;3.42;2.35;;;;;;;9.12;100.00;98981.59;5052856;28;20190;-73
2021/05/23 00:38:53;;;;;;;5.10;2.55;;;;;;;9.02;100.00;98977.75;5052610;28;20233;-72
2021/05/23 00:41:19;;;;;;;6.63;2.55;;;;;;;9.04;100.00;98974.00;5053678;28;20183;-72
2021/05/23 00:43:45;;;;;;;5.50;3.22;;;;;;;8.87;100.00;98977.75;5053370;28;20201;-72
2021/05/23 00:46:12;;;;;;;3.38;2.60;;;;;;;8.77;100.00;98979.25;5053348;28;20225;-73
2021/05/23 00:48:38;;;;;;;3.00;2.20;;;;;;;8.86;100.00;98985.88;5053415;28;20188;-73
2021/05/23 00:51:05;;;;;;;3.78;2.10;;;;;;;8.89;100.00;98983.03;5053631;28;20187;-73
2021/05/23 00:53:32;;;;;;;2.83;2.60;;;;;;;8.90;100.00;98974.00;5053205;28;20249;-72
2021/05/23 00:55:59;;;;;;;4.45;2.33;;;;;;;9.00;100.00;98975.19;5053156;28;20270;-72
2021/05/23 00:58:25;;;;;;;3.00;2.40;;;;;;;9.08;100.00;98980.91;5053209;28;20191;-73
2021/05/23 01:01:10;;;;;;;2.80;2.22;;;;;;;9.26;100.00;98981.59;5053324;28;20278;-72
2021/05/23 01:03:56;;;;;;;2.80;2.60;;;;;;;9.35;100.00;98989.06;5053206;28;20228;-72
2021/05/23 01:06:23;;;;;;;3.78;2.15;;;;;;;9.16;100.00;98980.47;5053404;28;20243;-74
2021/05/23 01:08:50;;;;;;;2.65;1.90;;;;;;;9.16;100.00;98985.84;5053414;28;20285;-73
2021/05/23 01:11:52;;;;;;;4.18;2.47;;;;;;;9.02;100.00;98993.84;5053150;28;20187;-72
2021/05/23 01:14:40;;;;;;;3.40;2.60;;;;;;;8.89;100.00;99001.81;5052613;28;20229;-72
2021/05/23 01:17:09;;;;;;;2.80;1.52;;;;;;;9.02;100.00;98989.34;5052770;28;20293;-73
2021/05/23 01:19:53;;;;;;;2.85;2.50;;;;;;;9.09;100.00;98993.41;5052926;28;20218;-73
2021/05/23 01:22:28;;;;;;;4.90;2.08;;;;;;;9.10;100.00;98995.13;5053236;28;20231;-72
2021/05/23 01:25:02;;;;;;;1.90;1.80;;;;;;;8.98;100.00;99017.38;5053225;28;20552;-72
2021/05/23 01:27:34;;;;;;;6.00;2.10;;;;;;;8.87;100.00;99018.00;5052673;28;20296;-74
2021/05/23 01:30:05;;;;;;;3.67;1.70;;;;;;;8.72;100.00;99018.91;5053068;28;20191;-74
2021/05/23 01:32:31;;;;;;;3.42;1.83;;;;;;;8.71;100.00;99031.47;5053166;28;20218;-74
2021/05/23 01:35:04;;;;;;;3.95;2.05;;;;;;;8.66;100.00;99032.69;5052847;28;20207;-72
2021/05/23 01:37:31;;;;;;;2.65;1.60;;;;;;;8.54;100.00;99035.16;5053423;28;20548;-73
2021/05/23 01:39:58;;;;;;;2.72;1.88;;;;;;;8.69;100.00;99037.91;5052698;28;20287;-72
2021/05/23 01:42:26;;;;;;;5.53;1.80;;;;;;;8.67;100.00;99037.13;5052949;28;20190;-74
2021/05/23 01:44:52;;;;;;;3.67;2.08;;;;;;;8.67;100.00;99034.44;5052980;28;20292;-73
2021/05/23 01:47:19;;;;;;;3.15;2.60;;;;;;;8.71;100.00;99030.63;5052957;28;20250;-72
2021/05/23 01:49:45;;;;;;;2.20;1.98;;;;;;;8.54;100.00;99036.97;5054835;28;20190;-72
2021/05/23 01:52:12;;;;;;;7.63;1.83;;;;;;;8.69;100.00;99044.13;5056305;28;20293;-73
2021/05/23 01:54:45;;;;;;;4.72;1.67;;;;;;;8.67;100.00;99042.50;5056226;28;20280;-72
2021/05/23 01:57:20;;;;;;;1.95;1.80;;;;;;;8.62;100.00;99048.13;5056826;28;20616;-73
2021/05/23 01:59:47;;;;;;;2.50;1.58;;;;;;;8.52;100.00;99041.56;5056209;28;20276;-73
2021/05/23 02:02:13;;;;;;;2.65;1.40;;;;;;;8.42;100.00;99043.94;5056143;28;20631;-72
2021/05/23 02:04:42;;;;;;;1.85;1.58;;;;;;;8.41;100.00;99044.91;5056311;28;20225;-73
2021/05/23 02:07:09;;;;;;;2.97;2.05;;;;;;;8.48;100.00;99040.91;5056258;28;20264;-73
2021/05/23 02:09:37;;;;;;;2.35;1.60;;;;;;;8.61;100.00;99050.91;5056289;28;20186;-73
2021/05/23 02:12:04;;;;;;;2.08;1.85;;;;;;;8.50;100.00;99049.72;5056064;28;20217;-72
2021/05/23 02:14:31;;;;;;;2.75;1.77;;;;;;;8.42;100.00;99057.34;5055714;28;20217;-71
2021/05/23 02:16:57;;;;;;;2.45;1.63;;;;;;;8.53;100.00;99056.72;5056318;28;20652;-72
2021/05/23 02:19:24;;;;;;;3.70;1.70;;;;;;;8.59;100.00;99063.53;5055812;28;20288;-73
2021/05/23 02:21:50;;;;;;;5.53;1.90;;;;;;;8.66;100.00;99057.75;5055716;28;20233;-74
2021/05/23 02:24:16;;;;;;;6.68;2.05;;;;;;;8.76;100.00;99058.06;5055539;28;20280;-73
2021/05/23 02:26:43;;;;;;;4.00;1.77;;;;;;;8.76;100.00;99074.16;5055769;28;20217;-73
2021/05/23 02:29:09;;;;;;;2.58;2.00;;;;;;;8.65;100.00;99060.50;5055430;28;20178;-74
2021/05/23 02:31:36;;;;;;;2.55;1.55;;;;;;;8.53;100.00;99062.94;5055098;28;20225;-73
2021/05/23 02:34:03;;;;;;;2.55;1.67;;;;;;;8.40;100.00;99067.28;5055688;28;20186;-71
2021/05/23 02:36:30;;;;;;;2.90;1.88;;;;;;;8.53;100.00;99072.81;5055295;28;20286;-74
2021/05/23 02:38:56;;;;;;;3.10;1.60;;;;;;;8.56;100.00;99075.31;5055119;28;20321;-73
2021/05/23 02:41:23;;;;;;;2.53;1.67;;;;;;;8.30;100.00;99082.16;5055015;28;20190;-72
2021/05/23 02:43:49;;;;;;;3.15;1.50;;;;;;;8.46;100.00;99076.81;5055502;28;20190;-73
2021/05/23 02:46:15;;;;;;;1.75;1.40;;;;;;;8.48;100.00;99074.88;5054653;28;20221;-72
2021/05/23 02:48:41;;;;;;;4.40;1.55;;;;;;;8.51;100.00;99080.09;5055020;28;20282;-73
2021/05/23 02:51:08;;;;;;;1.98;1.58;;;;;;;8.35;100.00;99089.00;5055267;28;20686;-73
2021/05/23 02:53:34;;;;;;;3.95;1.73;;;;;;;8.44;100.00;99086.78;5055287;28;20685;-71
2021/05/23 02:56:01;;;;;;;2.45;1.90;;;;;;;8.38;100.00;99089.78;5054999;28;20205;-73
2021/05/23 02:58:27;;;;;;;2.38;1.67;;;;;;;8.50;100.00;99089.09;5055360;28;20607;-72
2021/05/23 03:00:53;;;;;;;1.85;1.73;;;;;;;8.54;100.00;99090.66;5054936;28;20618;-72
2021/05/23 03:03:19;;;;;;;4.95;2.10;;;;;;;8.44;100.00;99093.00;5055286;28;20696;-71
2021/05/23 03:05:46;;;;;;;5.70;2.25;;;;;;;8.47;100.00;99098.19;5054991;28;20219;-73
2021/05/23 03:08:13;;;;;;;3.42;1.85;;;;;;;8.32;100.00;99096.34;5055320;28;20287;-72
2021/05/23 03:10:42;;;;;;;1.80;1.63;;;;;;;8.42;100.00;99097.59;5054786;28;20248;-73
2021/05/23 03:13:09;;;;;;;5.75;1.95;;;;;;;8.41;100.00;99103.91;5055020;28;20274;-72
2021/05/23 03:15:36;;;;;;;2.83;1.75;;;;;;;8.43;100.00;99110.03;5054864;28;20587;-72
2021/05/23 03:18:03;;;;;;;2.40;1.73;;;;;;;8.36;100.00;99108.63;5054773;28;20599;-74
2021/05/23 03:20:30;;;;;;;2.50;2.10;;;;;;;8.51;100.00;99117.66;5054858;28;20194;-71
2021/05/23 03:22:58;;;;;;;2.30;2.10;;;;;;;8.40;100.00;99112.91;5054591;28;20689;-73
2021/05/23 03:25:27;;;;;;;1.95;1.70;;;;;;;8.42;100.00;99123.56;5054957;28;20185;-73
2021/05/23 03:27:54;;;;;;;3.58;1.50;;;;;;;8.35;100.00;99118.50;5054242;28;20218;-73
2021/05/23 03:30:23;;;;;;;2.97;1.80;;;;;;;8.42;100.00;99123.56;5054295;28;20189;-71
2021/05/23 03:32:50;;;;;;;2.97;1.60;;;;;;;8.46;100.00;99127.81;5054756;28;20632;-73
2021/05/23 03:35:19;;;;;;;2.05;1.90;;;;;;;8.40;100.00;99126.31;5054540;28;20190;-73
2021/05/23 03:37:46;;;;;;;3.85;2.00;;;;;;;8.46;100.00;99134.03;5054067;28;20278;-74
2021/05/23 03:40:15;;;;;;;4.05;1.98;;;;;;;8.53;100.00;99138.09;5054086;28;20702;-74
2021/05/23 03:42:43;;;;;;;3.60;1.90;;;;;;;8.49;100.00;99136.53;5054060;28;20182;-73
2021/05/23 03:45:10;;;;;;;2.88;1.90;;;;;;;8.46;100.00;99142.06;5054346;28;20545;-73
2021/05/23 03:47:37;;;;;;;2.03;1.35;;;;;;;8.66;100.00;99143.63;5053941;28;20660;-72
2021/05/23 03:50:04;;;;;;;3.15;1.38;;;;;;;8.53;100.00;99143.44;5054088;28;20203;-72
2021/05/23 03:52:31;;;;;;;3.15;1.50;;;;;;;8.72;100.00;99153.13;5054236;28;20636;-73
2021/05/23 03:54:57;;;;;;;4.00;1.80;;;;;;;8.71;100.00;99152.28;5054032;28;20272;-73
2021/05/23 03:57:23;;;;;;;4.75;1.90;;;;;;;8.75;100.00;99151.16;5053696;28;20223;-72
2021/05/23 03:59:50;;;;;;;2.97;1.63;;;;;;;8.76;100.00;99158.22;5054195;28;20191;-72
2021/05/23 04:02:16;;;;;;;4.45;2.30;;;;;;;8.87;100.00;99156.75;5053869;28;20624;-72
2021/05/23 04:04:49;;;;;;;3.17;1.60;;;;;;;8.83;100.00;99165.94;5053709;28;20202;-71
2021/05/23 04:07:17;;;;;;;3.13;1.77;;;;;;;8.88;100.00;99174.59;5053398;28;20210;-73
2021/05/23 04:09:43;;;;;;;3.83;1.65;;;;;;;8.71;100.00;99176.44;5053809;28;20252;-72
2021/05/23 04:12:14;;;;;;;1.88;1.40;;;;;;;8.87;100.00;99183.59;5053133;28;20304;-73
2021/05/23 04:14:40;;;;;;;2.35;1.90;;;;;;;8.83;100.00;99188.28;5053501;28;20189;-72
2021/05/23 04:17:07;;;;;;;5.50;1.60;;;;;;;8.81;100.00;99192.88;5053721;28;20516;-73
2021/05/23 04:19:34;;;;;;;3.67;1.70;;;;;;;8.78;100.00;99198.41;5053870;28;20412;-73
2021/05/23 04:22:02;;;;;;;2.58;1.58;;;;;;;8.98;100.00;99199.97;5054040;28;20209;-73
2021/05/23 04:24:28;;;;;;;2.65;2.17;;;;;;;9.10;100.00;99203.75;5053773;28;20238;-74
2021/05/23 04:26:54;;;;;;;5.75;1.90;;;;;;;9.18;100.00;99204.19;5052807;28;20669;-74
2021/05/23 04:29:21;;;;;;;2.85;1.67;;;;;;;9.28;100.00;99208.03;5053541;28;20249;-72
2021/05/23 04:31:47;;;;;;;2.58;1.60;;;;;;;9.27;100.00;99214.38;5053258;28;20293;-72
2021/05/23 04:34:14;;;;;;;1.58;1.48;;;;;;;9.33;100.00;99223.88;5053503;28;20668;-73
2021/05/23 04:36:40;;;;;;;5.13;2.05;;;;;;;9.45;100.00;99225.84;5053293;28;20231;-73
2021/05/23 04:39:06;;;;;;;5.32;1.30;;;;;;;9.44;100.00;99226.78;5053260;28;20238;-73
2021/05/23 04:41:33;;;;;;;2.22;1.73;;;;;;;9.51;100.00;99233.53;5053435;28;20207;-72
2021/05/23 04:43:59;;;;;;;3.95;1.70;;;;;;;9.55;100.00;99235.09;5053498;28;20277;-72
2021/05/23 04:46:26;;;;;;;3.03;1.60;;;;;;;9.43;100.00;99241.22;5053194;28;20228;-72
2021/05/23 04:48:53;;;;;;;3.63;1.42;;;;;;;9.34;100.00;99247.13;5053424;28;20199;-72
2021/05/23 04:51:21;;;;;;;2.22;1.65;;;;;;;9.48;100.00;99257.06;5053215;28;20232;-72
2021/05/23 04:53:47;;;;;;;4.05;1.35;;;;;;;9.60;100.00;99250.94;5052721;28;20207;-71
2021/05/23 04:56:13;;;;;;;1.75;1.48;;;;;;;9.65;100.00;99247.97;5053610;28;20179;-73
2021/05/23 04:58:39;;;;;;;3.95;1.55;;;;;;;9.55;100.00;99250.34;5053083;28;20191;-73
2021/05/23 05:01:05;;;;;;;1.40;1.30;;;;;;;9.48;100.00;99247.16;5053075;28;20241;-74
2021/05/23 05:03:32;;;;;;;3.67;1.60;;;;;;;9.59;100.00;99259.97;5053432;28;20623;-72
2021/05/23 05:05:58;;;;;;;2.00;1.80;;;;;;;9.59;100.00;99258.16;5053156;28;20187;-73
2021/05/23 05:08:25;;;;;;;3.63;2.03;;;;;;;9.85;100.00;99263.78;5053113;28;20302;-72
2021/05/23 05:10:51;;;;;;;2.17;1.48;;;;;;;9.88;100.00;99265.41;5053190;28;20182;-71
2021/05/23 05:13:17;;;;;;;1.88;1.42;;;;;;;10.00;100.00;99260.16;5052595;28;20184;-72
2021/05/23 05:15:43;;;;;;;2.95;1.73;;;;;;;10.29;99.77;99272.78;5052710;28;20416;-74
2021/05/23 05:18:09;;;;;;;2.05;1.85;;;;;;;10.22;97.06;99269.56;5053384;28;20231;-74
2021/05/23 05:20:36;;;;;;;1.90;1.33;;;;;;;10.17;97.32;99272.56;5052809;28;20287;-74
2021/05/23 05:23:02;;;;;;;2.65;1.30;;;;;;;10.41;95.63;99272.91;5053410;28;20243;-72
2021/05/23 05:25:29;;;;;;;2.85;1.65;;;;;;;10.42;97.64;99271.06;5056789;28;20212;-71
2021/05/23 05:27:55;;;;;;;3.63;1.80;;;;;;;10.22;98.78;99272.28;5057427;28;20219;-71
2021/05/23 05:30:22;;;;;;;3.10;1.98;;;;;;;10.32;96.56;99275.31;5056570;28;20225;-72
2021/05/23 05:32:49;;;;;;;2.75;1.60;;;;;;;10.44;96.84;99274.53;5057113;28;20190;-71
2021/05/23 05:35:15;;;;;;;2.30;1.80;;;;;;;10.30;95.06;99278.09;5056593;28;20642;-72
2021/05/23 05:37:41;;;;;;;3.38;1.67;;;;;;;10.29;95.73;99283.56;5056972;28;20238;-72
2021/05/23 05:40:08;;;;;;;5.72;2.20;;;;;;;10.08;94.72;99280.34;5056210;28;20267;-71
2021/05/23 05:42:35;;;;;;;4.03;2.00;;;;;;;10.14;96.30;99282.66;5056994;28;20657;-71
2021/05/23 05:45:01;;;;;;;2.17;1.88;;;;;;;10.26;96.39;99295.34;5056742;28;20250;-73
2021/05/23 05:47:27;;;;;;;2.25;1.70;;;;;;;10.41;94.98;99289.03;5056585;28;20775;-71
2021/05/23 05:49:54;;;;;;;3.60;2.03;;;;;;;10.48;95.73;99294.91;5055456;28;20204;-72
2021/05/23 05:52:20;;;;;;;2.60;2.38;;;;;;;10.79;93.53;99293.00;5056655;28;20239;-73
2021/05/23 05:54:46;;;;;;;2.78;2.08;;;;;;;10.91;93.23;99292.19;5056590;28;20308;-74
2021/05/23 05:57:13;;;;;;;5.28;2.50;;;;;;;11.05;92.82;99292.16;5056358;28;20195;-71
2021/05/23 05:59:40;;;;;;;1.88;1.67;;;;;;;10.94;90.58;99307.28;5055981;28;20189;-73
2021/05/23 06:02:07;;;;;;;5.13;2.58;;;;;;;11.01;90.29;99298.72;5055714;28;20203;-71
2021/05/23 06:04:33;;;;;;;3.60;2.20;;;;;;;10.89;90.48;99299.50;5056093;28;20276;-72
2021/05/23 06:06:59;;;;;;;2.67;2.20;;;;;;;10.80;92.69;99305.47;5055752;28;20247;-74
2021/05/23 06:09:25;;;;;;;3.38;2.13;;;;;;;10.81;91.60;99307.22;5055510;28;20204;-73
2021/05/23 06:11:51;;;;;;;4.90;2.03;;;;;;;10.93;92.63;99314.50;5056076;28;20223;-71
2021/05/23 06:14:18;;;;;;;2.92;1.55;;;;;;;10.81;91.92;99320.69;5056277;28;20193;-73
2021/05/23 06:16:45;;;;;;;2.30;1.60;;;;;;;10.83;91.77;99316.03;5056103;28;20300;-73
2021/05/23 06:19:11;;;;;;;3.78;2.42;;;;;;;10.58;93.07;99320.31;5055985;28;20219;-73
2021/05/23 06:21:38;;;;;;;3.40;2.70;;;;;;;10.76;92.30;99325.47;5055623;28;20205;-72
2021/05/23 06:24:04;;;;;;;4.22;1.90;;;;;;;10.81;90.60;99323.38;5056220;28;20587;-73
2021/05/23 06:26:31;;;;;;;2.63;1.90;;;;;;;10.89;91.06;99326.44;5055658;28;20218;-73
2021/05/23 06:28:57;;;;;;;4.43;2.30;;;;;;;11.10;90.49;99318.78;5055610;28;20279;-71
2021/05/23 06:31:23;;;;;;;2.80;2.47;;;;;;;11.18;89.77;99327.25;5055555;28;20216;-74
2021/05/23 06:33:50;;;;;;;3.15;1.90;;;;;;;11.23;89.53;99324.25;5055512;28;20196;-73
2021/05/23 06:36:17;;;;;;;2.78;2.10;;;;;;;11.01;90.35;99331.06;5055370;28;20530;-74
2021/05/23 06:38:43;;;;;;;3.05;2.22;;;;;;;10.91;92.68;99335.28;5055351;28;20225;-71
2021/05/23 06:41:09;;;;;;;4.47;1.80;;;;;;;10.74;93.16;99343.56;5054972;28;20288;-73
2021/05/23 06:43:35;;;;;;;2.33;1.98;;;;;;;10.73;94.58;99340.00;5055450;28;20205;-72
2021/05/23 06:46:01;;;;;;;2.53;1.75;;;;;;;10.85;95.66;99351.81;5055345;28;20679;-74
2021/05/23 06:48:27;;;;;;;2.47;1.80;;;;;;;11.19;97.17;99341.59;5055214;28;20191;-73
2021/05/23 06:50:54;;;;;;;2.40;2.20;;;;;;;11.66;95.71;99348.38;5055380;28;20567;-72
2021/05/23 06:53:20;;;;;;;2.65;1.80;;;;;;;11.82;93.35;99341.00;5055184;28;20277;-73
2021/05/23 06:55:46;;;;;;;3.40;2.05;;;;;;;11.64;89.04;99344.94;5054580;28;20198;-73
2021/05/23 06:58:13;;;;;;;3.85;2.10;;;;;;;11.80;91.83;99350.16;5054801;28;20598;-74
2021/05/23 07:00:39;;;;;;;5.40;2.42;;;;;;;12.17;92.06;99348.56;5054084;28;20273;-74
2021/05/23 07:03:05;;;;;;;2.67;1.83;;;;;;;12.24;88.60;99355.28;5054082;28;20279;-74
2021/05/23 07:05:31;;;;;;;5.55;2.10;;;;;;;12.44;87.05;99344.94;5054211;28;20193;-71
2021/05/23 07:07:58;;;;;;;3.85;1.52;;;;;;;12.38;84.77;99348.91;5054038;28;20201;-73
2021/05/23 07:10:24;;;;;;;1.55;1.45;;;;;;;12.21;84.63;99351.91;5054502;28;20683;-73
2021/05/23 07:12:51;;;;;;;3.05;1.38;;;;;;;12.26;87.91;99357.88;5054110;28;20203;-73
2021/05/23 07:15:17;;;;;;;5.28;1.88;;;;;;;12.23;85.54;99353.56;5054201;28;20560;-73
2021/05/23 07:17:43;;;;;;;2.20;1.58;;;;;;;11.95;85.68;99367.19;5053761;28;20301;-71
2021/05/23 07:20:10;;;;;;;2.80;1.65;;;;;;;11.88;87.03;99355.94;5053715;28;20240;-72
2021/05/23 07:22:36;;;;;;;2.53;1.90;;;;;;;11.92;85.62;99364.69;5054707;28;20220;-73
2021/05/23 07:25:03;;;;;;;3.28;1.50;;;;;;;11.98;85.66;99361.59;5053559;28;20363;-74
2021/05/23 07:27:30;;;;;;;2.53;1.80;;;;;;;12.25;83.92;99361.53;5053990;28;20201;-73
2021/05/23 07:29:56;;;;;;;2.20;1.80;;;;;;;12.50;82.54;99361.59;5053939;28;20192;-74
2021/05/23 07:32:22;;;;;;;2.38;1.60;;;;;;;13.05;78.82;99361.34;5054390;28;20326;-73
2021/05/23 07:34:48;;;;;;;1.50;1.40;;;;;;;13.03;78.82;99361.44;5053883;28;20242;-73
2021/05/23 07:37:14;;;;;;;2.05;1.65;;;;;;;13.47;78.51;99356.50;5044545;28;20193;-74
2021/05/23 07:39:40;;;;;;;2.13;1.83;;;;;;;13.71;77.55;99362.78;5053941;28;20286;-74
2021/05/23 07:42:07;;;;;;;1.85;1.65;;;;;;;13.93;76.31;99353.91;5053746;28;20216;-72
2021/05/23 07:44:33;;;;;;;1.58;1.30;;;;;;;14.22;74.57;99363.47;5054425;28;20195;-73
2021/05/23 07:46:59;;;;;;;2.45;1.83;;;;;;;14.07;71.97;99368.25;5053316;28;20629;-72
2021/05/23 07:49:26;;;;;;;3.45;1.60;;;;;;;13.65;73.08;99371.34;5053680;28;20198;-73
2021/05/23 07:51:52;;;;;;;3.75;1.60;;;;;;;13.63;72.91;99375.16;5053948;28;20190;-75
2021/05/23 07:54:18;;;;;;;4.28;1.50;;;;;;;13.15;73.45;99378.59;5053584;28;20186;-72
2021/05/23 07:56:45;;;;;;;4.22;1.67;;;;;;;13.15;75.19;99384.88;5053604;28;20288;-72
2021/05/23 07:59:12;;;;;;;2.15;1.63;;;;;;;13.23;74.16;99380.75;5053485;28;20217;-74
2021/05/23 08:01:38;;;;;;;1.52;1.30;;;;;;;13.35;72.83;99391.56;5054045;28;20197;-73
2021/05/23 08:04:04;;;;;;;4.13;1.73;;;;;;;13.45;71.45;99383.63;5053849;28;20201;-74
2021/05/23 08:06:31;;;;;;;2.85;1.40;;;;;;;13.46;71.40;99382.69;5053898;28;20679;-72
2021/05/23 08:08:57;;;;;;;3.13;1.50;;;;;;;13.50;71.89;99388.69;5053959;28;20190;-74
2021/05/23 08:11:23;;;;;;;3.13;1.30;;;;;;;13.47;71.33;99388.94;5053651;28;20205;-72
2021/05/23 08:13:49;;;;;;;3.85;1.65;;;;;;;13.40;71.99;99377.72;5053465;28;20197;-71
2021/05/23 08:16:16;;;;;;;3.53;1.60;;;;;;;13.27;70.62;99395.75;5053123;28;20222;-71
2021/05/23 08:18:42;;;;;;;3.40;1.63;;;;;;;13.17;71.69;99392.88;5053464;28;20192;-72
2021/05/23 08:21:09;;;;;;;4.40;1.80;;;;;;;12.88;71.46;99389.56;5053266;28;20198;-72
2021/05/23 08:23:36;;;;;;;4.28;1.40;;;;;;;12.83;70.84;99391.72;5053177;28;20233;-73
2021/05/23 08:26:02;;;;;;;1.55;1.45;;;;;;;13.09;70.64;99390.72;5053954;28;20186;-74
2021/05/23 08:28:31;;;;;;;2.33;1.20;;;;;;;12.99;71.19;99389.66;5053513;28;20671;-73
2021/05/23 08:30:58;;;;;;;4.15;2.00;;;;;;;13.02;70.99;99389.41;5053401;28;20220;-73
2021/05/23 08:33:25;;;;;;;1.50;1.40;;;;;;;13.04;70.56;99401.00;5053540;28;20273;-71
2021/05/23 08:35:51;;;;;;;2.90;1.63;;;;;;;13.03;71.16;99398.41;5053693;28;20310;-73
2021/05/23 08:38:17;;;;;;;4.20;2.25;;;;;;;13.30;69.72;99401.00;5053693;28;20535;-72
2021/05/23 08:40:43;;;;;;;8.95;2.75;;;;;;;13.23;69.64;99405.06;5053704;28;20606;-72
2021/05/23 08:43:10;;;;;;;1.98;1.63;;;;;;;13.50;69.36;99403.13;5053587;28;20613;-73
2021/05/23 08:45:37;;;;;;;2.50;1.85;;;;;;;13.62;68.99;99408.59;5053165;28;20276;-72
2021/05/23 08:48:04;;;;;;;2.80;1.73;;;;;;;14.05;66.50;99395.41;5052540;28;20297;-72
2021/05/23 08:50:32;;;;;;;2.35;1.40;;;;;;;14.24;64.85;99403.00;5052866;28;20198;-73
2021/05/23 08:53:00;;;;;;;2.53;1.50;;;;;;;14.33;64.94;99404.13;5053145;28;20188;-74
2021/05/23 08:55:27;;;;;;;4.57;1.80;;;;;;;14.03;65.51;99402.78;5053025;28;20585;-74
2021/05/23 08:57:55;;;;;;;4.40;1.33;;;;;;;14.35;63.85;99397.63;5054257;28;20194;-72
2021/05/23 09:00:22;;;;;;;2.45;1.60;;;;;;;14.51;63.31;99396.44;5057019;28;20274;-73
2021/05/23 09:02:53;;;;;;;4.70;1.40;;;;;;;14.62;62.16;99392.94;5056406;28;20199;-73
2021/05/23 09:05:27;;;;;;;2.60;1.35;;;;;;;14.29;63.51;99402.66;5057244;28;20290;-74
2021/05/23 09:07:54;;;;;;;3.50;1.33;;;;;;;14.37;62.71;99402.94;5056695;28;20293;-73
2021/05/23 09:10:25;;;;;;;1.75;1.20;;;;;;;14.47;62.02;99406.66;5056796;28;20233;-73
2021/05/23 09:12:51;;;;;;;7.57;4.75;;;;;;;14.34;62.39;99403.19;5048899;28;20222;-72
2021/05/23 09:15:18;;;;;;;2.97;1.40;;;;;;;14.21;62.86;99403.25;5056189;28;20188;-73
2021/05/23 09:17:44;;;;;;;1.67;1.38;;;;;;;14.35;62.61;99402.19;5056552;28;20935;-73
2021/05/23 09:20:18;;;;;;;2.00;1.48;;;;;;;14.57;62.57;99412.25;5056641;28;20667;-73
2021/05/23 09:22:50;;;;;;;2.08;1.20;;;;;;;15.25;60.30;99413.22;5056643;28;20202;-74
2021/05/23 09:25:27;;;;;;;4.95;1.30;;;;;;;15.55;57.51;99409.00;5056509;28;20189;-72
2021/05/23 09:27:53;;;;;;;1.88;1.40;;;;;;;15.54;57.24;99405.41;5049052;28;20229;-74
2021/05/23 09:30:25;;;;;;;2.00;1.80;;;;;;;15.41;54.84;99385.69;5056159;28;20195;-75
2021/05/23 09:32:53;;;;;;;1.85;1.20;;;;;;;15.49;54.77;99406.78;5055502;28;20206;-74
2021/05/23 09:35:20;;;;;;;2.78;1.20;;;;;;;16.30;54.23;99408.19;5055884;28;20699;-73
2021/05/23 09:37:57;;;;;;;2.30;1.35;;;;;;;15.56;55.05;99406.16;5055995;28;20275;-72
2021/05/23 09:40:26;;;;;;;1.90;1.20;;;;;;;15.08;56.34;99405.56;5055741;28;20234;-76
2021/05/23 09:42:54;;;;;;;1.63;1.30;;;;;;;14.81;57.67;99412.16;5056017;28;20190;-73
2021/05/23 09:45:23;;;;;;;3.92;2.15;;;;;;;14.79;57.88;99416.88;5056297;28;20576;-73
2021/05/23 09:47:54;;;;;;;4.47;1.40;;;;;;;15.10;56.56;99418.00;5055978;28;20251;-75
2021/05/23 09:50:48;;;;;;;2.08;1.85;;;;;;;15.36;55.47;99423.19;5056241;28;20268;-75
2021/05/23 09:53:20;;;;;;;2.20;1.42;;;;;;;15.60;54.28;99418.50;5031602;28;20197;-73
2021/05/23 09:55:55;;;;;;;2.88;1.10;;;;;;;15.37;54.29;99414.06;5055916;28;20189;-73
2021/05/23 09:58:23;;;;;;;2.28;1.98;;;;;;;15.43;53.75;99422.56;5055607;28;20208;-74
2021/05/23 10:00:49;;;;;;;3.00;0.90;;;;;;;15.58;53.47;99425.00;5055797;28;20212;-74
2021/05/23 10:03:23;;;;;;;2.38;1.20;;;;;;;15.54;54.15;99429.84;5055818;28;20197;-74
2021/05/23 10:05:49;;;;;;;1.63;1.05;;;;;;;15.30;53.61;99429.97;5055916;28;20667;-75
2021/05/23 10:08:16;;;;;;;1.60;1.50;;;;;;;15.12;55.13;99453.13;5055693;28;20572;-75
2021/05/23 10:10:42;;;;;;;1.45;1.25;;;;;;;13.76;68.56;99452.59;5054923;28;20203;-74
2021/05/23 10:13:10;;;;;;;2.97;1.42;;;;;;;12.93;73.56;99463.03;5055495;28;20221;-74
2021/05/23 10:15:38;;;;;;;2.65;1.42;;;;;;;12.92;74.44;99458.63;5055493;28;20285;-74
2021/05/23 10:18:05;;;;;;;2.28;1.35;;;;;;;12.86;75.19;99457.19;5055262;28;20201;-76
2021/05/23 10:20:31;;;;;;;1.60;1.50;;;;;;;13.14;76.27;99447.16;5055701;28;20692;-74
2021/05/23 10:23:00;;;;;;;1.30;1.00;;;;;;;13.72;71.47;99444.81;5055789;28;20239;-75
2021/05/23 10:25:27;;;;;;;4.75;1.23;;;;;;;14.36;70.00;99439.13;5047340;28;20583;-72
2021/05/23 10:27:55;;;;;;;3.65;1.20;;;;;;;14.73;64.74;99450.72;5055378;28;20209;-73
2021/05/23 10:30:23;;;;;;;1.25;1.00;;;;;;;14.94;66.29;99447.31;5054626;28;20330;-73
2021/05/23 10:32:49;;;;;;;1.83;1.27;;;;;;;15.39;62.35;99459.06;5055369;28;20240;-73
2021/05/23 10:35:17;;;;;;;1.15;1.05;;;;;;;15.41;61.10;99462.53;5054887;28;20203;-73
2021/05/23 10:37:45;;;;;;;1.58;1.00;;;;;;;15.13;59.08;99460.31;5054895;28;20195;-75
2021/05/23 10:40:20;;;;;;;1.50;1.00;;;;;;;14.31;64.31;99462.97;5055075;28;20310;-74
2021/05/23 10:42:52;;;;;;;1.25;1.05;;;;;;;13.96;66.37;99463.78;5055241;28;20270;-74
2021/05/23 10:45:27;;;;;;;1.50;1.20;;;;;;;14.53;67.62;99464.91;5054900;28;20270;-74
2021/05/23 10:47:55;;;;;;;2.20;1.38;;;;;;;14.51;63.11;99450.63;5047937;28;20687;-73
2021/05/23 10:50:30;;;;;;;2.63;1.30;;;;;;;15.21;62.15;99445.13;5055046;28;20193;-74
2021/05/23 10:52:58;;;;;;;1.48;1.38;;;;;;;16.31;59.46;99445.22;5054999;28;20186;-75
2021/05/23 10:55:24;;;;;;;1.92;1.05;;;;;;;16.01;57.39;99449.53;5054452;28;20332;-74
2021/05/23 10:57:51;;;;;;;1.88;1.10;;;;;;;16.31;57.89;99449.81;5054603;28;20231;-75
2021/05/23 11:00:21;;;;;;;1.92;1.40;;;;;;;16.54;57.55;99442.41;5054779;28;20728;-74
2021/05/23 11:02:49;;;;;;;1.40;1.02;;;;;;;16.23;56.92;99447.72;5054322;28;20193;-74
2021/05/23 11:05:20;;;;;;;2.03;1.33;;;;;;;16.22;55.99;99440.59;5054848;28;20212;-73
2021/05/23 11:07:57;;;;;;;1.60;1.15;;;;;;;16.35;56.76;99446.72;5054570;28;20217;-74
2021/05/23 11:10:25;;;;;;;3.10;1.10;;;;;;;16.63;52.41;99445.22;5054261;28;20193;-73
2021/05/23 11:12:55;;;;;;;2.55;1.27;;;;;;;16.58;51.53;99444.75;5054587;28;20655;-74
2021/05/23 11:15:22;;;;;;;1.40;1.10;;;;;;;16.68;49.54;99442.09;5054804;28;20197;-74
2021/05/23 11:17:50;;;;;;;4.70;1.10;;;;;;;16.47;51.03;99439.38;5054935;28;20557;-74
2021/05/23 11:20:22;;;;;;;2.00;1.15;;;;;;;15.68;53.16;99452.28;5054326;28;20182;-75
2021/05/23 11:23:03;;;;;;;1.90;1.20;;;;;;;15.87;55.12;99448.94;5053977;28;20600;-73
2021/05/23 11:25:37;;;;;;;2.00;1.00;;;;;;;16.09;54.51;99467.03;5047332;28;20193;-72
2021/05/23 11:28:06;;;;;;;2.40;1.20;;;;;;;16.10;55.44;99463.31;5054185;28;20213;-73
2021/05/23 11:30:34;;;;;;;2.10;1.25;;;;;;;16.16;53.69;99457.38;5046642;28;20644;-75
2021/05/23 11:33:04;;;;;;;1.23;1.00;;;;;;;16.14;52.25;99468.38;5053850;28;20272;-75
2021/05/23 11:35:32;;;;;;;3.05;1.00;;;;;;;16.71;50.15;99455.44;5053883;28;20328;-74
2021/05/23 11:37:59;;;;;;;3.30;1.23;;;;;;;16.86;49.46;99450.56;5054104;28;20520;-75